Weather at Yinchuan/Xincheng Air Base

Public forecast

Using degrees Celsius for public forecast. Weather courtesy of forecast.io.

Current aviation weather report (METAR) for Yinchuan/Xincheng Air Base

Retrieved UTC (0 seconds ago):

Closest aviation forecast (TAF) to Yinchuan/Xincheng Air Base

Closest forecast is Lanzhou Zhongchuan Airport, 164.0 nm (303.7 km) SW. Retrieved 2021/04/17 18:03 UTC (3 hours ago):

TAF ZLLL 171501Z 1718/1818 34003MPS 6000 NSC TX21/1809Z TN01/1723Z